createdAt,value
2023-01-08T00:02:05.528Z,7.79
2023-01-08T00:04:34.675Z,7.71
2023-01-08T00:07:02.694Z,8.57
2023-01-08T00:09:30.846Z,8.42
2023-01-08T00:11:58.722Z,8.67
2023-01-08T00:14:26.802Z,8.63
2023-01-08T00:16:54.949Z,7.47
2023-01-08T00:19:22.783Z,8.74
2023-01-08T00:21:52.315Z,8.81
2023-01-08T00:24:20.935Z,7.81
2023-01-08T00:26:48.777Z,8.35
2023-01-08T00:29:16.987Z,8.44
2023-01-08T00:31:45.351Z,8.29
2023-01-08T00:34:13.252Z,8.63
2023-01-08T00:36:41.156Z,8.65
2023-01-08T00:39:10.500Z,8.64
2023-01-08T00:41:38.354Z,8.70
2023-01-08T00:44:06.572Z,8.81
2023-01-08T00:46:34.416Z,8.70
2023-01-08T00:49:02.664Z,8.21
2023-01-08T00:51:30.723Z,8.80
2023-01-08T00:53:58.843Z,8.57
2023-01-08T00:56:28.314Z,8.85
2023-01-08T00:58:56.851Z,8.84
2023-01-08T01:01:25.017Z,8.76
2023-01-08T01:03:52.958Z,8.82
2023-01-08T01:06:20.970Z,8.79
2023-01-08T01:08:49.001Z,8.98
2023-01-08T01:11:20.477Z,8.86
2023-01-08T01:13:50.300Z,8.40
2023-01-08T01:16:18.667Z,8.95
2023-01-08T01:18:46.522Z,7.91
2023-01-08T01:21:18.967Z,8.95
2023-01-08T01:23:46.760Z,8.87
2023-01-08T01:26:19.114Z,8.38
2023-01-08T01:28:51.504Z,8.94
2023-01-08T01:31:21.161Z,8.62
2023-01-08T01:33:49.601Z,8.90
2023-01-08T01:36:19.226Z,8.51
2023-01-08T01:38:48.262Z,8.94
2023-01-08T01:41:24.541Z,8.99
2023-01-08T01:43:54.651Z,7.88
2023-01-08T01:46:29.419Z,8.99
2023-01-08T01:49:01.734Z,8.93
2023-01-08T01:51:33.728Z,9.02
2023-01-08T01:54:03.534Z,9.08
2023-01-08T01:56:33.145Z,9.00
2023-01-08T01:59:02.776Z,8.86
2023-01-08T02:01:32.225Z,9.10
2023-01-08T02:04:00.280Z,8.76
2023-01-08T02:06:38.370Z,9.06
2023-01-08T02:09:15.569Z,9.14
2023-01-08T02:12:09.818Z,8.74
2023-01-08T02:14:45.352Z,9.17
2023-01-08T02:17:18.953Z,9.07
2023-01-08T02:19:52.319Z,9.00
2023-01-08T02:22:29.539Z,9.02
2023-01-08T02:25:03.312Z,9.00
2023-01-08T02:27:35.224Z,8.97
2023-01-08T02:30:06.883Z,8.91
2023-01-08T02:32:38.757Z,9.09
2023-01-08T02:35:08.186Z,9.14
2023-01-08T02:37:36.724Z,7.92
2023-01-08T02:40:12.483Z,9.09
2023-01-08T02:42:48.869Z,9.07
2023-01-08T02:45:36.806Z,8.56
2023-01-08T02:48:11.132Z,8.98
2023-01-08T02:50:42.662Z,9.12
2023-01-08T02:53:15.538Z,8.71
2023-01-08T02:55:48.158Z,9.08
2023-01-08T02:58:18.336Z,9.07
2023-01-08T03:00:47.887Z,9.18
2023-01-08T03:03:19.408Z,8.71
2023-01-08T03:05:50.579Z,9.04
2023-01-08T03:08:20.122Z,8.89
2023-01-08T03:10:52.670Z,7.84
2023-01-08T03:13:28.215Z,8.72
2023-01-08T03:16:00.217Z,9.03
2023-01-08T03:18:34.297Z,8.99
2023-01-08T03:21:03.263Z,8.82
2023-01-08T03:23:33.897Z,8.59
2023-01-08T03:26:02.909Z,8.96
2023-01-08T03:28:36.748Z,8.98
2023-01-08T03:31:06.149Z,8.98
2023-01-08T03:33:35.264Z,8.96
2023-01-08T03:36:06.144Z,8.30
2023-01-08T03:38:37.953Z,8.74
2023-01-08T03:41:10.251Z,8.87
2023-01-08T03:43:39.605Z,8.48
2023-01-08T03:46:12.933Z,8.72
2023-01-08T03:48:42.403Z,9.00
2023-01-08T03:51:11.009Z,8.59
2023-01-08T03:53:39.165Z,8.40
2023-01-08T03:56:07.899Z,8.90
2023-01-08T03:58:35.878Z,8.89
2023-01-08T04:01:05.231Z,8.98
2023-01-08T04:03:33.080Z,8.88
2023-01-08T04:06:01.046Z,8.99
2023-01-08T04:08:28.817Z,8.95
2023-01-08T04:10:56.745Z,8.54
2023-01-08T04:13:24.646Z,8.71
2023-01-08T04:15:53.185Z,8.11
2023-01-08T04:18:22.496Z,8.81
2023-01-08T04:20:50.414Z,8.88
2023-01-08T04:23:18.268Z,8.71
2023-01-08T04:25:46.127Z,8.74
2023-01-08T04:28:14.117Z,8.59
2023-01-08T04:30:42.163Z,8.94
2023-01-08T04:33:10.070Z,8.91
2023-01-08T04:35:39.253Z,8.78
2023-01-08T04:38:07.228Z,8.85
2023-01-08T04:40:35.599Z,8.37
2023-01-08T04:43:03.527Z,8.87
2023-01-08T04:45:31.482Z,8.88
2023-01-08T04:48:00.381Z,8.75
2023-01-08T04:50:28.751Z,8.77
2023-01-08T04:53:00.382Z,8.70
2023-01-08T04:55:28.242Z,8.61
2023-01-08T04:57:56.177Z,8.57
2023-01-08T05:00:23.989Z,8.01
2023-01-08T05:02:51.948Z,8.44
2023-01-08T05:05:20.001Z,8.57
2023-01-08T05:07:47.881Z,8.71
2023-01-08T05:10:17.382Z,8.75
2023-01-08T05:12:45.183Z,8.69
2023-01-08T05:15:13.311Z,8.65
2023-01-08T05:17:41.277Z,8.62
2023-01-08T05:20:10.608Z,8.71
2023-01-08T05:22:38.442Z,8.72
2023-01-08T05:25:07.106Z,7.73
2023-01-08T05:27:36.452Z,7.70
2023-01-08T05:30:04.535Z,8.65
2023-01-08T05:32:32.534Z,8.71
2023-01-08T05:35:00.564Z,8.53
2023-01-08T05:37:28.561Z,8.53
2023-01-08T05:39:56.329Z,8.78
2023-01-08T05:42:24.138Z,7.65
2023-01-08T05:44:53.413Z,8.64
2023-01-08T05:47:21.297Z,8.68
2023-01-08T05:49:49.321Z,7.58
2023-01-08T05:52:17.290Z,8.52
2023-01-08T05:54:45.135Z,8.70
2023-01-08T05:57:13.317Z,8.70
2023-01-08T05:59:41.191Z,8.56
2023-01-08T06:02:10.765Z,8.68
2023-01-08T06:04:38.931Z,8.60
2023-01-08T06:07:06.771Z,8.29
2023-01-08T06:09:34.596Z,8.50
2023-01-08T06:12:02.373Z,8.10
2023-01-08T06:14:30.228Z,8.52
2023-01-08T06:16:58.120Z,8.10
2023-01-08T06:19:27.792Z,8.53
2023-01-08T06:21:55.993Z,8.52
2023-01-08T06:24:24.035Z,8.58
2023-01-08T06:26:52.081Z,8.53
2023-01-08T06:29:20.296Z,8.57
2023-01-08T06:31:48.461Z,8.39
2023-01-08T06:34:16.860Z,8.51
2023-01-08T06:36:46.140Z,8.60
2023-01-08T06:39:15.256Z,8.08
2023-01-08T06:41:43.980Z,8.55
2023-01-08T06:44:11.917Z,8.00
2023-01-08T06:46:40.557Z,8.48
2023-01-08T06:49:08.989Z,8.54
2023-01-08T06:51:37.554Z,8.37
2023-01-08T06:54:07.104Z,8.60
2023-01-08T06:56:45.487Z,8.12
2023-01-08T06:59:16.932Z,8.52
2023-01-08T07:01:45.028Z,7.55
2023-01-08T07:04:12.989Z,8.46
2023-01-08T07:06:40.882Z,8.57
2023-01-08T07:09:13.029Z,8.54
2023-01-08T07:11:41.115Z,8.30
2023-01-08T07:14:09.500Z,8.36
2023-01-08T07:16:37.545Z,8.46
2023-01-08T07:19:05.686Z,8.43
2023-01-08T07:21:33.589Z,8.01
2023-01-08T07:24:01.513Z,8.48
2023-01-08T07:26:30.710Z,7.68
2023-01-08T07:28:58.682Z,8.43
2023-01-08T07:31:26.652Z,8.52
2023-01-08T07:33:54.561Z,8.47
2023-01-08T07:36:22.422Z,8.21
2023-01-08T07:38:50.570Z,8.48
2023-01-08T07:41:19.551Z,8.48
2023-01-08T07:43:49.797Z,8.48
2023-01-08T07:46:17.592Z,8.45
2023-01-08T07:48:45.571Z,8.43
2023-01-08T07:51:13.579Z,7.82
2023-01-08T07:53:41.518Z,8.38
2023-01-08T07:56:11.600Z,8.55
2023-01-08T07:58:39.829Z,8.52
2023-01-08T08:01:12.226Z,8.54
2023-01-08T08:03:40.729Z,8.36
2023-01-08T08:06:09.236Z,7.94
2023-01-08T08:08:37.304Z,8.49
2023-01-08T08:11:05.625Z,8.44
2023-01-08T08:13:33.500Z,8.41
2023-01-08T08:16:05.286Z,8.49
2023-01-08T08:18:34.570Z,8.42
2023-01-08T08:21:02.445Z,8.50
2023-01-08T08:23:30.472Z,8.37
2023-01-08T08:25:58.584Z,8.58
2023-01-08T08:28:26.578Z,7.81
2023-01-08T08:30:54.449Z,7.96
2023-01-08T08:33:22.401Z,8.31
2023-01-08T08:35:52.378Z,8.71
2023-01-08T08:38:23.173Z,8.77
2023-01-08T08:40:52.116Z,8.76
2023-01-08T08:43:20.443Z,8.69
2023-01-08T08:45:48.331Z,8.57
2023-01-08T08:48:17.109Z,8.75
2023-01-08T08:50:45.177Z,8.78
2023-01-08T08:53:14.380Z,8.84
2023-01-08T08:55:42.233Z,8.82
2023-01-08T08:58:11.752Z,8.86
2023-01-08T09:00:40.612Z,8.76
2023-01-08T09:03:12.216Z,8.79
2023-01-08T09:05:40.196Z,8.43
2023-01-08T09:08:08.122Z,8.92
2023-01-08T09:10:38.279Z,8.25
2023-01-08T09:13:06.383Z,8.75
2023-01-08T09:15:34.420Z,8.89
2023-01-08T09:18:02.340Z,8.78
2023-01-08T09:20:30.169Z,8.81
2023-01-08T09:23:00.563Z,8.91
2023-01-08T09:25:28.788Z,9.03
2023-01-08T09:28:02.417Z,8.94
2023-01-08T09:30:30.923Z,8.86
2023-01-08T09:33:02.313Z,9.00
2023-01-08T09:35:31.123Z,9.02
2023-01-08T09:37:59.500Z,9.17
2023-01-08T09:40:33.335Z,9.16
2023-01-08T09:43:06.212Z,9.21
2023-01-08T09:45:36.878Z,9.18
2023-01-08T09:48:08.745Z,8.63
2023-01-08T09:50:37.719Z,9.12
2023-01-08T09:53:05.557Z,9.19
2023-01-08T09:55:35.373Z,8.01
2023-01-08T09:58:04.680Z,9.23
2023-01-08T10:00:35.675Z,9.18
2023-01-08T10:03:03.697Z,9.21
2023-01-08T10:05:31.834Z,9.24
2023-01-08T10:07:59.795Z,9.18
2023-01-08T10:10:30.788Z,9.16
2023-01-08T10:12:59.616Z,9.21
2023-01-08T10:15:29.053Z,9.24
2023-01-08T10:18:03.279Z,8.94
2023-01-08T10:20:32.349Z,9.20
2023-01-08T10:23:11.885Z,9.22
2023-01-08T10:25:52.443Z,9.31
2023-01-08T10:28:23.600Z,9.34
2023-01-08T10:30:54.708Z,9.44
2023-01-08T10:33:26.822Z,9.42
2023-01-08T10:35:59.024Z,8.60
2023-01-08T10:38:33.769Z,9.57
2023-01-08T10:41:04.463Z,9.52
2023-01-08T10:43:36.351Z,9.53
2023-01-08T10:46:08.925Z,9.66
2023-01-08T10:48:39.909Z,9.75
2023-01-08T10:51:15.843Z,9.70
2023-01-08T10:53:44.135Z,9.57
2023-01-08T10:56:22.207Z,9.71
2023-01-08T10:58:51.423Z,9.65
2023-01-08T11:01:26.003Z,9.56
2023-01-08T11:03:57.941Z,9.33
2023-01-08T11:06:29.199Z,9.85
2023-01-08T11:09:01.594Z,9.55
2023-01-08T11:11:34.243Z,9.88
2023-01-08T11:14:04.640Z,9.61
2023-01-08T11:16:36.269Z,9.95
2023-01-08T11:19:05.221Z,10.02
2023-01-08T11:21:36.118Z,10.08
2023-01-08T11:24:18.121Z,10.13
2023-01-08T11:26:52.541Z,9.98
2023-01-08T11:29:25.679Z,9.90
2023-01-08T11:32:01.636Z,10.07
2023-01-08T11:34:34.988Z,10.08
2023-01-08T11:37:08.855Z,10.16
2023-01-08T11:39:39.799Z,9.59
2023-01-08T11:42:45.444Z,10.00
2023-01-08T11:45:23.105Z,10.14
2023-01-08T11:48:14.626Z,10.19
2023-01-08T11:50:55.428Z,10.19
2023-01-08T11:53:30.619Z,9.95
2023-01-08T11:56:12.247Z,10.19
2023-01-08T11:58:55.620Z,10.14
2023-01-08T12:01:43.876Z,10.31
2023-01-08T12:04:32.574Z,10.22
2023-01-08T12:07:09.884Z,10.26
2023-01-08T12:09:42.830Z,10.14
2023-01-08T12:12:20.362Z,9.44
2023-01-08T12:14:59.645Z,10.08
2023-01-08T12:17:40.310Z,10.04
2023-01-08T12:20:21.411Z,10.02
2023-01-08T12:23:03.361Z,10.02
2023-01-08T12:26:01.209Z,9.92
2023-01-08T12:29:03.739Z,9.96
2023-01-08T12:32:05.677Z,9.94
2023-01-08T12:34:43.058Z,9.47
2023-01-08T12:37:16.434Z,10.39
2023-01-08T12:39:51.425Z,10.41
2023-01-08T12:42:24.595Z,10.56
2023-01-08T12:44:55.441Z,10.35
2023-01-08T12:47:28.529Z,10.36
2023-01-08T12:50:06.168Z,10.28
2023-01-08T12:52:43.300Z,10.28
2023-01-08T12:55:22.370Z,10.24
2023-01-08T12:57:57.811Z,10.07
2023-01-08T13:00:32.715Z,10.17
2023-01-08T13:03:03.137Z,10.19
2023-01-08T13:05:34.566Z,10.25
2023-01-08T13:08:06.741Z,10.41
2023-01-08T13:10:38.900Z,10.08
2023-01-08T13:13:08.317Z,10.40
2023-01-08T13:15:37.644Z,10.56
2023-01-08T13:18:16.860Z,10.41
2023-01-08T13:20:56.141Z,10.75
2023-01-08T13:23:27.661Z,10.63
2023-01-08T13:25:57.594Z,10.52
2023-01-08T13:28:31.615Z,10.38
2023-01-08T13:31:10.753Z,10.30
2023-01-08T13:33:41.855Z,10.40
2023-01-08T13:36:32.088Z,10.28
2023-01-08T13:39:04.652Z,10.13
2023-01-08T13:41:34.304Z,9.93
2023-01-08T13:44:06.158Z,9.93
2023-01-08T13:46:37.950Z,10.00
2023-01-08T13:49:07.932Z,9.99
2023-01-08T13:51:43.356Z,9.99
2023-01-08T13:54:22.016Z,9.70
2023-01-08T13:56:54.846Z,10.12
2023-01-08T13:59:35.355Z,10.20
2023-01-08T14:02:03.761Z,10.12
2023-01-08T14:04:31.603Z,10.06
2023-01-08T14:07:15.468Z,10.10
2023-01-08T14:09:44.695Z,10.05
2023-01-08T14:12:15.681Z,10.06
2023-01-08T14:14:48.592Z,10.09
2023-01-08T14:17:18.260Z,9.79
2023-01-08T14:19:46.891Z,10.15
2023-01-08T14:22:20.501Z,9.98
2023-01-08T14:24:55.420Z,10.02
2023-01-08T14:27:25.937Z,10.02
2023-01-08T14:29:54.324Z,10.09
2023-01-08T14:32:24.185Z,9.99
2023-01-08T14:34:54.073Z,9.88
2023-01-08T14:37:21.988Z,9.86
2023-01-08T14:39:54.504Z,9.82
2023-01-08T14:42:44.499Z,9.68
2023-01-08T14:45:19.648Z,9.65
2023-01-08T14:47:49.743Z,9.61
2023-01-08T14:50:24.793Z,9.63
2023-01-08T14:52:53.959Z,9.46
2023-01-08T14:55:23.624Z,9.53
2023-01-08T14:57:55.502Z,9.38
2023-01-08T15:00:26.365Z,9.16
2023-01-08T15:02:54.343Z,9.31
2023-01-08T15:05:27.859Z,9.28
2023-01-08T15:07:59.730Z,9.29
2023-01-08T15:10:38.364Z,9.26
2023-01-08T15:13:08.539Z,9.18
2023-01-08T15:15:39.091Z,9.18
2023-01-08T15:18:09.003Z,9.01
2023-01-08T15:20:37.618Z,9.16
2023-01-08T15:23:05.649Z,9.03
2023-01-08T15:25:35.003Z,9.09
2023-01-08T15:28:04.640Z,9.05
2023-01-08T15:30:37.295Z,9.01
2023-01-08T15:33:10.281Z,8.63
2023-01-08T15:35:38.167Z,8.95
2023-01-08T15:38:08.848Z,8.88
2023-01-08T15:40:38.159Z,8.96
2023-01-08T15:43:10.729Z,8.92
2023-01-08T15:45:39.952Z,8.82
2023-01-08T15:48:08.643Z,8.82
2023-01-08T15:50:38.890Z,8.87
2023-01-08T15:53:07.757Z,8.92
2023-01-08T15:55:36.508Z,8.86
2023-01-08T15:58:05.918Z,8.87
2023-01-08T16:00:34.063Z,8.91
2023-01-08T16:03:03.239Z,8.80
2023-01-08T16:05:32.887Z,8.76
2023-01-08T16:08:01.086Z,8.70
2023-01-08T16:10:29.256Z,8.52
2023-01-08T16:12:57.676Z,8.57
2023-01-08T16:15:28.033Z,8.50
2023-01-08T16:17:56.082Z,8.27
2023-01-08T16:20:23.953Z,8.43
2023-01-08T16:22:52.099Z,8.39
2023-01-08T16:25:20.284Z,7.94
2023-01-08T16:27:48.133Z,8.50
2023-01-08T16:30:16.585Z,8.55
2023-01-08T16:32:47.476Z,8.41
2023-01-08T16:35:15.399Z,8.38
2023-01-08T16:37:43.230Z,8.42
2023-01-08T16:40:12.229Z,8.44
2023-01-08T16:42:40.400Z,8.48
2023-01-08T16:45:09.610Z,8.51
2023-01-08T16:47:38.729Z,8.08
2023-01-08T16:50:11.528Z,8.36
2023-01-08T16:52:39.955Z,8.32
2023-01-08T16:55:10.474Z,8.13
2023-01-08T16:57:38.628Z,8.18
2023-01-08T17:00:08.360Z,8.09
2023-01-08T17:02:36.312Z,8.04
2023-01-08T17:05:04.291Z,8.02
2023-01-08T17:07:35.238Z,8.13
2023-01-08T17:10:03.190Z,8.06
2023-01-08T17:12:31.206Z,8.05
2023-01-08T17:14:59.102Z,7.45
2023-01-08T17:17:26.975Z,7.62
2023-01-08T17:19:54.998Z,7.89
2023-01-08T17:22:22.912Z,7.85
2023-01-08T17:24:52.430Z,7.92
2023-01-08T17:27:20.356Z,7.83
2023-01-08T17:29:48.298Z,7.83
2023-01-08T17:32:16.093Z,7.83
2023-01-08T17:34:43.994Z,7.87
2023-01-08T17:37:11.888Z,7.98
2023-01-08T17:39:39.789Z,8.00
2023-01-08T17:42:25.380Z,8.07
2023-01-08T17:44:53.482Z,8.09
2023-01-08T17:47:21.331Z,7.85
2023-01-08T17:49:50.368Z,7.88
2023-01-08T17:52:18.461Z,7.45
2023-01-08T17:54:48.041Z,7.85
2023-01-08T17:57:17.956Z,7.89
2023-01-08T17:59:46.068Z,7.78
2023-01-08T18:02:18.055Z,7.98
2023-01-08T18:04:46.436Z,7.68
2023-01-08T18:07:14.512Z,7.92
2023-01-08T18:09:42.524Z,7.93
2023-01-08T18:12:10.826Z,7.91
2023-01-08T18:14:41.442Z,7.99
2023-01-08T18:17:09.321Z,7.38
2023-01-08T18:19:37.267Z,7.82
2023-01-08T18:22:05.132Z,7.68
2023-01-08T18:24:34.343Z,7.70
2023-01-08T18:27:02.506Z,7.68
2023-01-08T18:29:30.710Z,7.43
2023-01-08T18:32:00.406Z,7.68
2023-01-08T18:34:28.456Z,7.56
2023-01-08T18:36:56.263Z,7.00
2023-01-08T18:39:26.590Z,7.57
2023-01-08T18:42:12.179Z,7.12
2023-01-08T18:44:40.012Z,7.51
2023-01-08T18:47:10.538Z,7.16
2023-01-08T18:49:38.632Z,7.52
2023-01-08T18:52:06.403Z,7.59
2023-01-08T18:54:35.396Z,7.60
2023-01-08T18:57:03.513Z,7.79
2023-01-08T18:59:31.491Z,7.91
2023-01-08T19:01:59.674Z,7.88
2023-01-08T19:04:29.333Z,7.95
2023-01-08T19:06:57.238Z,7.87
2023-01-08T19:09:25.227Z,7.85
2023-01-08T19:11:53.111Z,7.76
2023-01-08T19:14:21.039Z,7.65
2023-01-08T19:16:51.422Z,7.69
2023-01-08T19:19:19.503Z,7.76
2023-01-08T19:21:49.107Z,7.71
2023-01-08T19:24:16.941Z,7.53
2023-01-08T19:26:44.951Z,7.45
2023-01-08T19:29:13.480Z,7.53
2023-01-08T19:31:41.698Z,7.48
2023-01-08T19:34:11.575Z,7.47
2023-01-08T19:36:39.549Z,7.61
2023-01-08T19:39:11.208Z,6.98
2023-01-08T19:41:56.849Z,7.48
2023-01-08T19:44:24.891Z,7.31
2023-01-08T19:46:52.911Z,7.27
2023-01-08T19:49:20.878Z,7.39
2023-01-08T19:51:48.889Z,7.36
2023-01-08T19:54:18.920Z,7.21
2023-01-08T19:56:46.823Z,7.45
2023-01-08T19:59:14.679Z,7.16
2023-01-08T20:01:42.924Z,7.22
2023-01-08T20:04:11.574Z,7.19
2023-01-08T20:06:39.473Z,7.22
2023-01-08T20:09:09.045Z,6.52
2023-01-08T20:11:38.320Z,7.24
2023-01-08T20:14:06.221Z,7.34
2023-01-08T20:16:34.257Z,6.89
2023-01-08T20:19:04.499Z,7.32
2023-01-08T20:21:32.618Z,7.46
2023-01-08T20:24:03.374Z,7.52
2023-01-08T20:26:32.778Z,7.59
2023-01-08T20:29:02.071Z,7.45
2023-01-08T20:31:31.284Z,6.94
2023-01-08T20:34:01.380Z,7.12
2023-01-08T20:36:32.407Z,7.17
2023-01-08T20:39:02.197Z,7.06
2023-01-08T20:41:30.571Z,7.37
2023-01-08T20:43:58.783Z,7.25
2023-01-08T20:46:30.292Z,7.27
2023-01-08T20:49:01.237Z,7.17
2023-01-08T20:51:29.306Z,7.20
2023-01-08T20:53:57.243Z,7.26
2023-01-08T20:56:25.033Z,7.32
2023-01-08T20:58:53.107Z,7.43
2023-01-08T21:01:23.240Z,7.22
2023-01-08T21:03:54.860Z,7.36
2023-01-08T21:06:24.977Z,7.31
2023-01-08T21:08:55.311Z,7.38
2023-01-08T21:11:23.852Z,7.50
2023-01-08T21:13:52.134Z,7.46
2023-01-08T21:16:23.359Z,7.45
2023-01-08T21:18:54.169Z,7.56
2023-01-08T21:21:24.162Z,7.48
2023-01-08T21:23:52.527Z,7.60
2023-01-08T21:26:20.581Z,7.58
2023-01-08T21:28:49.781Z,7.61
2023-01-08T21:31:19.247Z,7.40
2023-01-08T21:33:48.923Z,7.53
2023-01-08T21:36:20.045Z,7.37
2023-01-08T21:38:48.428Z,7.33
2023-01-08T21:41:32.390Z,7.41
2023-01-08T21:44:18.044Z,7.09
2023-01-08T21:46:46.562Z,7.29
2023-01-08T21:49:14.523Z,7.43
2023-01-08T21:52:01.617Z,7.36
2023-01-08T21:54:29.455Z,7.36
2023-01-08T21:56:57.484Z,7.28
2023-01-08T21:59:25.336Z,7.26
2023-01-08T22:01:53.307Z,7.31
2023-01-08T22:04:21.301Z,7.50
2023-01-08T22:06:50.565Z,7.36
2023-01-08T22:09:18.434Z,7.59
2023-01-08T22:11:46.705Z,7.62
2023-01-08T22:14:14.542Z,7.64
2023-01-08T22:16:42.572Z,7.51
2023-01-08T22:19:11.511Z,7.61
2023-01-08T22:21:39.873Z,7.71
2023-01-08T22:24:09.158Z,7.85
2023-01-08T22:26:37.200Z,7.72
2023-01-08T22:29:06.794Z,7.76
2023-01-08T22:31:35.487Z,7.71
2023-01-08T22:34:03.511Z,7.83
2023-01-08T22:36:31.467Z,7.85
2023-01-08T22:38:59.316Z,7.99
2023-01-08T22:41:28.557Z,7.76
2023-01-08T22:43:57.119Z,7.92
2023-01-08T22:46:26.277Z,7.94
2023-01-08T22:48:54.329Z,7.81
2023-01-08T22:51:22.571Z,7.96
2023-01-08T22:53:50.415Z,8.01
2023-01-08T22:56:18.609Z,8.09
2023-01-08T22:58:47.762Z,7.84
2023-01-08T23:01:18.092Z,7.96
2023-01-08T23:03:48.721Z,8.00
2023-01-08T23:06:18.494Z,8.01
2023-01-08T23:08:46.789Z,7.93
2023-01-08T23:11:17.332Z,8.01
2023-01-08T23:13:45.483Z,7.95
2023-01-08T23:16:16.603Z,7.91
2023-01-08T23:18:45.025Z,7.95
2023-01-08T23:21:15.556Z,7.96
2023-01-08T23:23:43.840Z,7.84
2023-01-08T23:26:13.940Z,8.04
2023-01-08T23:28:41.827Z,8.08
2023-01-08T23:31:10.630Z,8.05
2023-01-08T23:33:40.003Z,8.08
2023-01-08T23:36:08.696Z,7.90
2023-01-08T23:38:36.737Z,7.86
2023-01-08T23:41:07.360Z,7.93
2023-01-08T23:43:35.365Z,7.86
2023-01-08T23:46:03.721Z,8.01
2023-01-08T23:48:31.942Z,8.02
2023-01-08T23:51:01.431Z,7.96
2023-01-08T23:53:29.526Z,8.04
2023-01-08T23:55:57.996Z,8.03
2023-01-08T23:58:26.557Z,8.15
